sensor_id;sensor_type;location;lat;lon;timestamp;temperature;humidity
23147;DHT22;11742;53.532;-1.478;2023-07-31T00:00:11;21.60;81.60
23147;DHT22;11742;53.532;-1.478;2023-07-31T00:02:56;21.60;81.80
23147;DHT22;11742;53.532;-1.478;2023-07-31T00:05:40;21.60;81.70
23147;DHT22;11742;53.532;-1.478;2023-07-31T00:08:24;21.60;81.70
23147;DHT22;11742;53.532;-1.478;2023-07-31T00:11:09;21.60;81.80
23147;DHT22;11742;53.532;-1.478;2023-07-31T00:13:53;21.50;81.80
23147;DHT22;11742;53.532;-1.478;2023-07-31T00:16:37;21.50;81.80
23147;DHT22;11742;53.532;-1.478;2023-07-31T00:19:21;21.60;81.90
23147;DHT22;11742;53.532;-1.478;2023-07-31T00:22:06;21.50;82.90
23147;DHT22;11742;53.532;-1.478;2023-07-31T00:24:50;21.50;82.00
23147;DHT22;11742;53.532;-1.478;2023-07-31T00:27:34;21.50;82.10
23147;DHT22;11742;53.532;-1.478;2023-07-31T00:30:18;21.50;82.10
23147;DHT22;11742;53.532;-1.478;2023-07-31T00:33:03;21.50;82.10
23147;DHT22;11742;53.532;-1.478;2023-07-31T00:35:48;21.50;82.20
23147;DHT22;11742;53.532;-1.478;2023-07-31T00:38:32;21.50;82.20
23147;DHT22;11742;53.532;-1.478;2023-07-31T00:41:16;21.50;82.30
23147;DHT22;11742;53.532;-1.478;2023-07-31T00:44:00;21.50;82.50
23147;DHT22;11742;53.532;-1.478;2023-07-31T00:46:45;21.50;82.50
23147;DHT22;11742;53.532;-1.478;2023-07-31T00:49:29;21.50;82.60
23147;DHT22;11742;53.532;-1.478;2023-07-31T00:52:13;21.50;82.50
23147;DHT22;11742;53.532;-1.478;2023-07-31T00:54:57;21.50;82.60
23147;DHT22;11742;53.532;-1.478;2023-07-31T00:57:42;21.50;82.70
23147;DHT22;11742;53.532;-1.478;2023-07-31T01:00:27;21.40;82.60
23147;DHT22;11742;53.532;-1.478;2023-07-31T01:03:11;21.50;82.70
23147;DHT22;11742;53.532;-1.478;2023-07-31T01:12:23;21.40;82.90
23147;DHT22;11742;53.532;-1.478;2023-07-31T01:15:08;21.40;82.90
23147;DHT22;11742;53.532;-1.478;2023-07-31T01:17:56;21.40;82.90
23147;DHT22;11742;53.532;-1.478;2023-07-31T01:20:42;21.40;83.00
23147;DHT22;11742;53.532;-1.478;2023-07-31T01:26:26;21.40;83.10
23147;DHT22;11742;53.532;-1.478;2023-07-31T01:29:26;21.40;83.10
23147;DHT22;11742;53.532;-1.478;2023-07-31T01:32:14;21.40;83.10
23147;DHT22;11742;53.532;-1.478;2023-07-31T01:35:00;21.40;83.20
23147;DHT22;11742;53.532;-1.478;2023-07-31T01:37:45;21.40;84.10
23147;DHT22;11742;53.532;-1.478;2023-07-31T01:40:30;21.40;83.40
23147;DHT22;11742;53.532;-1.478;2023-07-31T01:43:14;21.40;83.30
23147;DHT22;11742;53.532;-1.478;2023-07-31T01:45:58;21.40;83.40
23147;DHT22;11742;53.532;-1.478;2023-07-31T01:48:42;21.40;83.40
23147;DHT22;11742;53.532;-1.478;2023-07-31T01:51:26;21.40;83.40
23147;DHT22;11742;53.532;-1.478;2023-07-31T01:54:10;21.40;83.40
23147;DHT22;11742;53.532;-1.478;2023-07-31T01:56:55;21.40;83.40
23147;DHT22;11742;53.532;-1.478;2023-07-31T01:59:39;21.40;83.30
23147;DHT22;11742;53.532;-1.478;2023-07-31T02:02:24;21.40;83.30
23147;DHT22;11742;53.532;-1.478;2023-07-31T02:05:08;21.40;83.30
23147;DHT22;11742;53.532;-1.478;2023-07-31T02:07:52;21.40;83.70
23147;DHT22;11742;53.532;-1.478;2023-07-31T02:10:36;21.40;83.40
23147;DHT22;11742;53.532;-1.478;2023-07-31T02:13:20;21.40;83.40
23147;DHT22;11742;53.532;-1.478;2023-07-31T02:16:04;21.40;83.40
23147;DHT22;11742;53.532;-1.478;2023-07-31T02:18:48;21.40;83.40
23147;DHT22;11742;53.532;-1.478;2023-07-31T02:21:32;21.40;83.40
23147;DHT22;11742;53.532;-1.478;2023-07-31T02:24:17;21.40;83.30
23147;DHT22;11742;53.532;-1.478;2023-07-31T02:27:01;21.40;83.30
23147;DHT22;11742;53.532;-1.478;2023-07-31T02:29:45;21.40;83.40
23147;DHT22;11742;53.532;-1.478;2023-07-31T02:32:29;21.40;83.40
23147;DHT22;11742;53.532;-1.478;2023-07-31T02:35:14;21.40;83.40
23147;DHT22;11742;53.532;-1.478;2023-07-31T02:37:59;21.40;83.60
23147;DHT22;11742;53.532;-1.478;2023-07-31T02:40:43;21.40;83.60
23147;DHT22;11742;53.532;-1.478;2023-07-31T02:43:28;21.40;83.60
23147;DHT22;11742;53.532;-1.478;2023-07-31T02:46:12;21.40;83.70
23147;DHT22;11742;53.532;-1.478;2023-07-31T02:48:56;21.40;83.80
23147;DHT22;11742;53.532;-1.478;2023-07-31T02:51:41;21.40;83.80
23147;DHT22;11742;53.532;-1.478;2023-07-31T02:54:25;21.40;83.80
23147;DHT22;11742;53.532;-1.478;2023-07-31T02:57:09;21.40;83.80
23147;DHT22;11742;53.532;-1.478;2023-07-31T02:59:53;21.40;83.80
23147;DHT22;11742;53.532;-1.478;2023-07-31T03:02:37;21.40;83.80
23147;DHT22;11742;53.532;-1.478;2023-07-31T03:05:21;21.40;83.80
23147;DHT22;11742;53.532;-1.478;2023-07-31T03:08:05;21.40;83.80
23147;DHT22;11742;53.532;-1.478;2023-07-31T03:10:49;21.40;84.00
23147;DHT22;11742;53.532;-1.478;2023-07-31T03:13:33;21.30;83.90
23147;DHT22;11742;53.532;-1.478;2023-07-31T03:16:17;21.40;84.00
23147;DHT22;11742;53.532;-1.478;2023-07-31T03:19:01;21.30;83.90
23147;DHT22;11742;53.532;-1.478;2023-07-31T03:21:46;21.40;84.00
23147;DHT22;11742;53.532;-1.478;2023-07-31T03:24:30;21.40;84.00
23147;DHT22;11742;53.532;-1.478;2023-07-31T03:27:14;21.40;84.10
23147;DHT22;11742;53.532;-1.478;2023-07-31T03:29:59;21.30;84.00
23147;DHT22;11742;53.532;-1.478;2023-07-31T03:32:43;21.40;84.10
23147;DHT22;11742;53.532;-1.478;2023-07-31T03:35:28;21.30;84.10
23147;DHT22;11742;53.532;-1.478;2023-07-31T03:38:12;21.30;84.10
23147;DHT22;11742;53.532;-1.478;2023-07-31T03:40:56;21.30;84.20
23147;DHT22;11742;53.532;-1.478;2023-07-31T03:43:40;21.30;84.30
23147;DHT22;11742;53.532;-1.478;2023-07-31T03:46:24;21.40;84.30
23147;DHT22;11742;53.532;-1.478;2023-07-31T03:49:09;21.30;84.30
23147;DHT22;11742;53.532;-1.478;2023-07-31T03:51:54;21.30;84.40
23147;DHT22;11742;53.532;-1.478;2023-07-31T03:54:38;21.30;84.50
23147;DHT22;11742;53.532;-1.478;2023-07-31T03:57:22;21.30;84.40
23147;DHT22;11742;53.532;-1.478;2023-07-31T04:00:10;21.30;84.50
23147;DHT22;11742;53.532;-1.478;2023-07-31T04:02:54;21.30;84.50
23147;DHT22;11742;53.532;-1.478;2023-07-31T04:05:38;21.30;84.60
23147;DHT22;11742;53.532;-1.478;2023-07-31T04:08:24;21.30;84.60
23147;DHT22;11742;53.532;-1.478;2023-07-31T04:11:08;21.30;84.60
23147;DHT22;11742;53.532;-1.478;2023-07-31T04:13:52;21.30;84.70
23147;DHT22;11742;53.532;-1.478;2023-07-31T04:16:36;21.30;84.80
23147;DHT22;11742;53.532;-1.478;2023-07-31T04:19:20;21.30;84.70
23147;DHT22;11742;53.532;-1.478;2023-07-31T04:22:04;21.30;84.80
23147;DHT22;11742;53.532;-1.478;2023-07-31T04:24:49;21.30;84.80
23147;DHT22;11742;53.532;-1.478;2023-07-31T04:27:33;21.30;85.70
23147;DHT22;11742;53.532;-1.478;2023-07-31T04:30:17;21.30;84.80
23147;DHT22;11742;53.532;-1.478;2023-07-31T04:33:01;21.30;84.80
23147;DHT22;11742;53.532;-1.478;2023-07-31T04:35:53;21.30;84.90
23147;DHT22;11742;53.532;-1.478;2023-07-31T04:38:38;21.30;84.90
23147;DHT22;11742;53.532;-1.478;2023-07-31T04:41:22;21.30;84.90
23147;DHT22;11742;53.532;-1.478;2023-07-31T04:44:06;21.30;85.00
23147;DHT22;11742;53.532;-1.478;2023-07-31T04:46:50;21.30;85.00
23147;DHT22;11742;53.532;-1.478;2023-07-31T04:49:34;21.30;85.00
23147;DHT22;11742;53.532;-1.478;2023-07-31T04:52:18;21.30;85.10
23147;DHT22;11742;53.532;-1.478;2023-07-31T04:55:02;21.30;85.10
23147;DHT22;11742;53.532;-1.478;2023-07-31T04:57:47;21.30;85.10
23147;DHT22;11742;53.532;-1.478;2023-07-31T05:00:31;21.30;85.10
23147;DHT22;11742;53.532;-1.478;2023-07-31T05:03:15;21.40;85.30
23147;DHT22;11742;53.532;-1.478;2023-07-31T05:06:00;21.30;85.20
23147;DHT22;11742;53.532;-1.478;2023-07-31T05:08:44;21.30;85.20
23147;DHT22;11742;53.532;-1.478;2023-07-31T05:11:28;21.30;85.30
23147;DHT22;11742;53.532;-1.478;2023-07-31T05:14:12;21.30;85.30
23147;DHT22;11742;53.532;-1.478;2023-07-31T05:16:57;21.30;85.30
23147;DHT22;11742;53.532;-1.478;2023-07-31T05:19:41;21.30;85.50
23147;DHT22;11742;53.532;-1.478;2023-07-31T05:22:26;21.30;85.50
23147;DHT22;11742;53.532;-1.478;2023-07-31T05:25:10;21.30;85.50
23147;DHT22;11742;53.532;-1.478;2023-07-31T05:27:54;21.30;85.60
23147;DHT22;11742;53.532;-1.478;2023-07-31T05:30:38;21.40;85.50
23147;DHT22;11742;53.532;-1.478;2023-07-31T05:33:22;21.30;85.60
23147;DHT22;11742;53.532;-1.478;2023-07-31T05:36:06;21.30;85.60
23147;DHT22;11742;53.532;-1.478;2023-07-31T05:38:51;21.30;85.60
23147;DHT22;11742;53.532;-1.478;2023-07-31T05:41:35;21.40;85.70
23147;DHT22;11742;53.532;-1.478;2023-07-31T05:44:19;21.40;85.60
23147;DHT22;11742;53.532;-1.478;2023-07-31T05:47:04;21.40;85.70
23147;DHT22;11742;53.532;-1.478;2023-07-31T05:49:49;21.40;85.70
23147;DHT22;11742;53.532;-1.478;2023-07-31T05:52:36;21.40;85.80
23147;DHT22;11742;53.532;-1.478;2023-07-31T05:55:20;21.40;85.80
23147;DHT22;11742;53.532;-1.478;2023-07-31T05:58:05;21.40;85.90
23147;DHT22;11742;53.532;-1.478;2023-07-31T06:00:49;21.40;85.90
23147;DHT22;11742;53.532;-1.478;2023-07-31T06:03:33;21.40;85.90
23147;DHT22;11742;53.532;-1.478;2023-07-31T06:06:18;21.40;85.90
23147;DHT22;11742;53.532;-1.478;2023-07-31T06:09:02;21.40;85.90
23147;DHT22;11742;53.532;-1.478;2023-07-31T06:11:47;21.40;85.90
23147;DHT22;11742;53.532;-1.478;2023-07-31T06:14:32;21.40;85.90
23147;DHT22;11742;53.532;-1.478;2023-07-31T06:17:16;21.40;85.90
23147;DHT22;11742;53.532;-1.478;2023-07-31T06:20:00;21.40;86.00
23147;DHT22;11742;53.532;-1.478;2023-07-31T06:22:44;21.40;86.00
23147;DHT22;11742;53.532;-1.478;2023-07-31T06:25:28;21.40;86.00
23147;DHT22;11742;53.532;-1.478;2023-07-31T06:28:13;21.40;86.00
23147;DHT22;11742;53.532;-1.478;2023-07-31T06:30:58;21.40;86.00
23147;DHT22;11742;53.532;-1.478;2023-07-31T06:33:42;21.40;86.10
23147;DHT22;11742;53.532;-1.478;2023-07-31T06:36:26;21.40;86.20
23147;DHT22;11742;53.532;-1.478;2023-07-31T06:39:11;21.40;86.30
23147;DHT22;11742;53.532;-1.478;2023-07-31T06:41:55;21.40;86.30
23147;DHT22;11742;53.532;-1.478;2023-07-31T06:44:39;21.40;86.40
23147;DHT22;11742;53.532;-1.478;2023-07-31T06:47:23;21.40;86.40
23147;DHT22;11742;53.532;-1.478;2023-07-31T06:50:08;21.40;86.60
23147;DHT22;11742;53.532;-1.478;2023-07-31T06:52:52;21.50;86.70
23147;DHT22;11742;53.532;-1.478;2023-07-31T06:55:36;21.50;86.70
23147;DHT22;11742;53.532;-1.478;2023-07-31T06:58:21;21.50;86.80
23147;DHT22;11742;53.532;-1.478;2023-07-31T07:01:05;21.50;86.80
23147;DHT22;11742;53.532;-1.478;2023-07-31T07:03:49;21.50;86.80
23147;DHT22;11742;53.532;-1.478;2023-07-31T07:06:34;21.50;86.80
23147;DHT22;11742;53.532;-1.478;2023-07-31T07:09:18;21.50;86.90
23147;DHT22;11742;53.532;-1.478;2023-07-31T07:12:04;21.50;86.90
23147;DHT22;11742;53.532;-1.478;2023-07-31T07:14:49;21.50;86.90
23147;DHT22;11742;53.532;-1.478;2023-07-31T07:17:33;21.50;86.90
23147;DHT22;11742;53.532;-1.478;2023-07-31T07:20:17;21.60;87.00
23147;DHT22;11742;53.532;-1.478;2023-07-31T07:23:03;21.60;87.20
23147;DHT22;11742;53.532;-1.478;2023-07-31T07:25:47;21.60;87.20
23147;DHT22;11742;53.532;-1.478;2023-07-31T07:28:32;21.60;87.20
23147;DHT22;11742;53.532;-1.478;2023-07-31T07:31:16;21.60;87.30
23147;DHT22;11742;53.532;-1.478;2023-07-31T07:34:00;21.60;87.40
23147;DHT22;11742;53.532;-1.478;2023-07-31T07:36:44;21.60;87.60
23147;DHT22;11742;53.532;-1.478;2023-07-31T07:39:29;21.70;88.30
23147;DHT22;11742;53.532;-1.478;2023-07-31T07:42:14;21.70;87.70
23147;DHT22;11742;53.532;-1.478;2023-07-31T07:44:58;21.70;87.70
23147;DHT22;11742;53.532;-1.478;2023-07-31T07:47:43;21.70;87.70
23147;DHT22;11742;53.532;-1.478;2023-07-31T07:50:27;21.70;87.80
23147;DHT22;11742;53.532;-1.478;2023-07-31T07:53:11;21.70;87.80
23147;DHT22;11742;53.532;-1.478;2023-07-31T07:55:56;21.70;87.80
23147;DHT22;11742;53.532;-1.478;2023-07-31T07:58:40;21.80;87.90
23147;DHT22;11742;53.532;-1.478;2023-07-31T08:01:24;21.80;87.90
23147;DHT22;11742;53.532;-1.478;2023-07-31T08:04:08;21.80;87.90
23147;DHT22;11742;53.532;-1.478;2023-07-31T08:06:52;21.80;87.90
23147;DHT22;11742;53.532;-1.478;2023-07-31T08:09:36;21.80;87.80
23147;DHT22;11742;53.532;-1.478;2023-07-31T08:12:20;21.80;87.80
23147;DHT22;11742;53.532;-1.478;2023-07-31T08:15:05;21.80;87.60
23147;DHT22;11742;53.532;-1.478;2023-07-31T08:17:50;21.90;87.70
23147;DHT22;11742;53.532;-1.478;2023-07-31T08:20:34;21.80;87.60
23147;DHT22;11742;53.532;-1.478;2023-07-31T08:23:18;21.90;87.60
23147;DHT22;11742;53.532;-1.478;2023-07-31T08:26:02;21.90;87.50
23147;DHT22;11742;53.532;-1.478;2023-07-31T08:28:46;21.90;87.60
23147;DHT22;11742;53.532;-1.478;2023-07-31T08:31:30;21.90;90.40
23147;DHT22;11742;53.532;-1.478;2023-07-31T08:34:15;21.90;91.20
23147;DHT22;11742;53.532;-1.478;2023-07-31T08:36:59;21.90;91.80
23147;DHT22;11742;53.532;-1.478;2023-07-31T08:39:43;21.80;92.20
23147;DHT22;11742;53.532;-1.478;2023-07-31T08:42:27;21.70;92.60
23147;DHT22;11742;53.532;-1.478;2023-07-31T08:45:16;21.70;92.70
23147;DHT22;11742;53.532;-1.478;2023-07-31T08:48:01;21.60;92.90
23147;DHT22;11742;53.532;-1.478;2023-07-31T08:50:46;21.60;93.00
23147;DHT22;11742;53.532;-1.478;2023-07-31T08:53:30;21.50;93.40
23147;DHT22;11742;53.532;-1.478;2023-07-31T08:56:15;21.50;93.50
23147;DHT22;11742;53.532;-1.478;2023-07-31T08:59:02;21.40;93.60
23147;DHT22;11742;53.532;-1.478;2023-07-31T09:01:50;21.30;93.50
23147;DHT22;11742;53.532;-1.478;2023-07-31T09:04:36;21.30;93.60
23147;DHT22;11742;53.532;-1.478;2023-07-31T09:07:21;21.30;93.60
23147;DHT22;11742;53.532;-1.478;2023-07-31T09:10:06;21.30;93.60
23147;DHT22;11742;53.532;-1.478;2023-07-31T09:12:52;21.30;93.40
23147;DHT22;11742;53.532;-1.478;2023-07-31T09:15:37;21.30;93.50
23147;DHT22;11742;53.532;-1.478;2023-07-31T09:18:22;21.20;93.30
23147;DHT22;11742;53.532;-1.478;2023-07-31T09:21:07;21.20;93.50
23147;DHT22;11742;53.532;-1.478;2023-07-31T09:23:51;21.20;93.70
23147;DHT22;11742;53.532;-1.478;2023-07-31T09:26:37;21.10;93.90
23147;DHT22;11742;53.532;-1.478;2023-07-31T09:29:22;21.10;93.90
23147;DHT22;11742;53.532;-1.478;2023-07-31T09:32:16;21.00;94.10
23147;DHT22;11742;53.532;-1.478;2023-07-31T09:35:01;21.00;94.00
23147;DHT22;11742;53.532;-1.478;2023-07-31T09:37:49;21.00;93.90
23147;DHT22;11742;53.532;-1.478;2023-07-31T09:40:38;21.00;93.80
23147;DHT22;11742;53.532;-1.478;2023-07-31T09:43:23;21.10;94.30
23147;DHT22;11742;53.532;-1.478;2023-07-31T09:46:13;21.10;94.30
23147;DHT22;11742;53.532;-1.478;2023-07-31T09:49:11;21.10;94.20
23147;DHT22;11742;53.532;-1.478;2023-07-31T09:51:56;21.10;94.30
23147;DHT22;11742;53.532;-1.478;2023-07-31T09:54:40;21.10;94.40
23147;DHT22;11742;53.532;-1.478;2023-07-31T09:57:24;21.10;94.80
23147;DHT22;11742;53.532;-1.478;2023-07-31T10:00:11;21.10;94.60
23147;DHT22;11742;53.532;-1.478;2023-07-31T10:02:58;21.10;94.70
23147;DHT22;11742;53.532;-1.478;2023-07-31T10:05:47;21.00;94.80
23147;DHT22;11742;53.532;-1.478;2023-07-31T10:08:35;21.00;94.90
23147;DHT22;11742;53.532;-1.478;2023-07-31T10:11:22;20.90;94.60
23147;DHT22;11742;53.532;-1.478;2023-07-31T10:14:08;20.90;95.10
23147;DHT22;11742;53.532;-1.478;2023-07-31T10:16:53;20.80;94.80
23147;DHT22;11742;53.532;-1.478;2023-07-31T10:19:39;20.70;95.10
23147;DHT22;11742;53.532;-1.478;2023-07-31T10:22:23;20.70;95.10
23147;DHT22;11742;53.532;-1.478;2023-07-31T10:25:09;20.60;95.40
23147;DHT22;11742;53.532;-1.478;2023-07-31T10:27:54;20.60;95.40
23147;DHT22;11742;53.532;-1.478;2023-07-31T10:30:39;20.60;95.50
23147;DHT22;11742;53.532;-1.478;2023-07-31T10:33:23;20.50;95.60
23147;DHT22;11742;53.532;-1.478;2023-07-31T10:36:16;20.50;95.70
23147;DHT22;11742;53.532;-1.478;2023-07-31T10:39:03;20.50;95.80
23147;DHT22;11742;53.532;-1.478;2023-07-31T10:41:48;20.50;95.80
23147;DHT22;11742;53.532;-1.478;2023-07-31T10:44:32;20.50;96.00
23147;DHT22;11742;53.532;-1.478;2023-07-31T10:47:18;20.50;96.00
23147;DHT22;11742;53.532;-1.478;2023-07-31T10:52:59;20.50;95.90
23147;DHT22;11742;53.532;-1.478;2023-07-31T10:55:44;20.50;96.00
23147;DHT22;11742;53.532;-1.478;2023-07-31T10:58:30;20.60;95.90
23147;DHT22;11742;53.532;-1.478;2023-07-31T11:01:18;20.60;96.00
23147;DHT22;11742;53.532;-1.478;2023-07-31T11:04:10;20.60;96.00
23147;DHT22;11742;53.532;-1.478;2023-07-31T11:06:59;20.70;95.70
23147;DHT22;11742;53.532;-1.478;2023-07-31T11:09:44;20.80;95.50
23147;DHT22;11742;53.532;-1.478;2023-07-31T11:12:30;20.80;95.30
23147;DHT22;11742;53.532;-1.478;2023-07-31T11:15:15;21.00;95.10
23147;DHT22;11742;53.532;-1.478;2023-07-31T11:18:03;21.00;94.90
23147;DHT22;11742;53.532;-1.478;2023-07-31T11:20:49;21.10;94.70
23147;DHT22;11742;53.532;-1.478;2023-07-31T11:23:33;21.10;95.00
23147;DHT22;11742;53.532;-1.478;2023-07-31T11:26:18;21.10;94.60
23147;DHT22;11742;53.532;-1.478;2023-07-31T11:29:11;21.20;94.50
23147;DHT22;11742;53.532;-1.478;2023-07-31T11:31:55;21.20;94.50
23147;DHT22;11742;53.532;-1.478;2023-07-31T11:34:52;21.20;94.50
23147;DHT22;11742;53.532;-1.478;2023-07-31T11:37:41;21.20;94.40
23147;DHT22;11742;53.532;-1.478;2023-07-31T11:40:26;21.20;94.50
23147;DHT22;11742;53.532;-1.478;2023-07-31T11:43:13;21.20;94.30
23147;DHT22;11742;53.532;-1.478;2023-07-31T11:46:02;21.20;94.40
23147;DHT22;11742;53.532;-1.478;2023-07-31T11:48:48;21.20;94.40
23147;DHT22;11742;53.532;-1.478;2023-07-31T11:51:32;21.20;94.30
23147;DHT22;11742;53.532;-1.478;2023-07-31T11:54:17;21.20;94.40
23147;DHT22;11742;53.532;-1.478;2023-07-31T11:57:01;21.20;94.20
23147;DHT22;11742;53.532;-1.478;2023-07-31T11:59:46;21.30;94.30
23147;DHT22;11742;53.532;-1.478;2023-07-31T12:02:31;21.30;94.20
23147;DHT22;11742;53.532;-1.478;2023-07-31T12:05:16;21.30;94.10
23147;DHT22;11742;53.532;-1.478;2023-07-31T12:08:00;21.40;94.00
23147;DHT22;11742;53.532;-1.478;2023-07-31T12:10:44;21.50;94.00
23147;DHT22;11742;53.532;-1.478;2023-07-31T12:13:31;21.50;93.90
23147;DHT22;11742;53.532;-1.478;2023-07-31T12:16:16;21.60;93.70
23147;DHT22;11742;53.532;-1.478;2023-07-31T12:19:00;21.60;93.60
23147;DHT22;11742;53.532;-1.478;2023-07-31T12:21:44;21.70;93.40
23147;DHT22;11742;53.532;-1.478;2023-07-31T12:24:28;21.80;93.20
23147;DHT22;11742;53.532;-1.478;2023-07-31T12:27:14;21.90;93.00
23147;DHT22;11742;53.532;-1.478;2023-07-31T12:29:59;22.00;92.80
23147;DHT22;11742;53.532;-1.478;2023-07-31T12:32:43;22.10;92.70
23147;DHT22;11742;53.532;-1.478;2023-07-31T12:35:36;22.10;92.50
23147;DHT22;11742;53.532;-1.478;2023-07-31T12:38:20;22.20;92.50
23147;DHT22;11742;53.532;-1.478;2023-07-31T12:41:05;22.20;92.80
23147;DHT22;11742;53.532;-1.478;2023-07-31T12:43:51;22.10;93.10
23147;DHT22;11742;53.532;-1.478;2023-07-31T12:46:35;22.00;93.40
23147;DHT22;11742;53.532;-1.478;2023-07-31T12:49:19;21.90;93.60
23147;DHT22;11742;53.532;-1.478;2023-07-31T12:52:04;21.80;93.70
23147;DHT22;11742;53.532;-1.478;2023-07-31T12:54:48;21.70;93.70
23147;DHT22;11742;53.532;-1.478;2023-07-31T12:57:32;21.70;93.60
23147;DHT22;11742;53.532;-1.478;2023-07-31T13:00:16;21.70;93.50
23147;DHT22;11742;53.532;-1.478;2023-07-31T13:03:01;21.70;93.50
23147;DHT22;11742;53.532;-1.478;2023-07-31T13:05:45;21.80;93.40
23147;DHT22;11742;53.532;-1.478;2023-07-31T13:08:29;21.80;93.30
23147;DHT22;11742;53.532;-1.478;2023-07-31T13:11:14;21.70;93.20
23147;DHT22;11742;53.532;-1.478;2023-07-31T13:13:58;21.70;93.10
23147;DHT22;11742;53.532;-1.478;2023-07-31T13:16:42;21.70;93.10
23147;DHT22;11742;53.532;-1.478;2023-07-31T13:19:26;21.70;93.00
23147;DHT22;11742;53.532;-1.478;2023-07-31T13:22:10;21.70;93.00
23147;DHT22;11742;53.532;-1.478;2023-07-31T13:24:54;21.70;92.90
23147;DHT22;11742;53.532;-1.478;2023-07-31T13:27:38;21.70;93.00
23147;DHT22;11742;53.532;-1.478;2023-07-31T13:30:22;21.70;94.00
23147;DHT22;11742;53.532;-1.478;2023-07-31T13:33:06;21.70;93.50
23147;DHT22;11742;53.532;-1.478;2023-07-31T13:35:50;21.60;93.30
23147;DHT22;11742;53.532;-1.478;2023-07-31T13:38:35;21.60;93.80
23147;DHT22;11742;53.532;-1.478;2023-07-31T13:41:19;21.60;93.70
23147;DHT22;11742;53.532;-1.478;2023-07-31T13:44:03;21.50;94.00
23147;DHT22;11742;53.532;-1.478;2023-07-31T13:46:47;21.50;94.10
23147;DHT22;11742;53.532;-1.478;2023-07-31T13:49:32;21.50;94.40
23147;DHT22;11742;53.532;-1.478;2023-07-31T13:52:17;21.60;94.70
23147;DHT22;11742;53.532;-1.478;2023-07-31T13:55:01;21.70;94.80
23147;DHT22;11742;53.532;-1.478;2023-07-31T13:57:45;21.80;94.90
23147;DHT22;11742;53.532;-1.478;2023-07-31T14:00:29;21.90;94.80
23147;DHT22;11742;53.532;-1.478;2023-07-31T14:03:13;22.10;94.90
23147;DHT22;11742;53.532;-1.478;2023-07-31T14:05:57;22.20;94.80
23147;DHT22;11742;53.532;-1.478;2023-07-31T14:08:42;22.30;94.60
23147;DHT22;11742;53.532;-1.478;2023-07-31T14:11:26;22.40;94.50
23147;DHT22;11742;53.532;-1.478;2023-07-31T14:14:11;22.60;94.60
23147;DHT22;11742;53.532;-1.478;2023-07-31T14:16:56;22.70;94.80
23147;DHT22;11742;53.532;-1.478;2023-07-31T14:19:41;22.80;94.60
23147;DHT22;11742;53.532;-1.478;2023-07-31T14:22:29;23.00;94.50
23147;DHT22;11742;53.532;-1.478;2023-07-31T14:25:14;23.10;94.50
23147;DHT22;11742;53.532;-1.478;2023-07-31T14:27:58;23.30;94.40
23147;DHT22;11742;53.532;-1.478;2023-07-31T14:30:42;23.40;94.10
23147;DHT22;11742;53.532;-1.478;2023-07-31T14:33:26;23.50;94.00
23147;DHT22;11742;53.532;-1.478;2023-07-31T14:36:10;23.50;92.60
23147;DHT22;11742;53.532;-1.478;2023-07-31T14:38:55;23.50;92.60
23147;DHT22;11742;53.532;-1.478;2023-07-31T14:41:39;23.50;93.00
23147;DHT22;11742;53.532;-1.478;2023-07-31T14:44:23;23.40;93.00
23147;DHT22;11742;53.532;-1.478;2023-07-31T14:47:07;23.30;92.90
23147;DHT22;11742;53.532;-1.478;2023-07-31T14:49:51;23.30;92.80
23147;DHT22;11742;53.532;-1.478;2023-07-31T14:52:35;23.30;92.80
23147;DHT22;11742;53.532;-1.478;2023-07-31T14:55:19;23.20;92.70
23147;DHT22;11742;53.532;-1.478;2023-07-31T14:58:03;23.10;92.60
23147;DHT22;11742;53.532;-1.478;2023-07-31T15:00:47;23.10;92.70
23147;DHT22;11742;53.532;-1.478;2023-07-31T15:03:32;23.10;92.70
23147;DHT22;11742;53.532;-1.478;2023-07-31T15:06:17;23.00;92.10
23147;DHT22;11742;53.532;-1.478;2023-07-31T15:09:01;22.90;92.40
23147;DHT22;11742;53.532;-1.478;2023-07-31T15:11:45;22.80;92.40
23147;DHT22;11742;53.532;-1.478;2023-07-31T15:14:29;22.80;92.50
23147;DHT22;11742;53.532;-1.478;2023-07-31T15:17:15;22.70;92.50
23147;DHT22;11742;53.532;-1.478;2023-07-31T15:20:00;22.70;92.50
23147;DHT22;11742;53.532;-1.478;2023-07-31T15:22:44;22.70;92.50
23147;DHT22;11742;53.532;-1.478;2023-07-31T15:25:28;22.60;92.40
23147;DHT22;11742;53.532;-1.478;2023-07-31T15:28:13;22.60;92.40
23147;DHT22;11742;53.532;-1.478;2023-07-31T15:30:57;22.60;92.40
23147;DHT22;11742;53.532;-1.478;2023-07-31T15:33:41;22.50;92.30
23147;DHT22;11742;53.532;-1.478;2023-07-31T15:36:25;22.50;92.30
23147;DHT22;11742;53.532;-1.478;2023-07-31T15:39:10;22.50;92.30
23147;DHT22;11742;53.532;-1.478;2023-07-31T15:41:54;22.40;92.20
23147;DHT22;11742;53.532;-1.478;2023-07-31T15:44:39;22.40;92.20
23147;DHT22;11742;53.532;-1.478;2023-07-31T15:47:23;22.40;92.20
23147;DHT22;11742;53.532;-1.478;2023-07-31T15:50:07;22.30;92.10
23147;DHT22;11742;53.532;-1.478;2023-07-31T15:52:52;22.30;92.10
23147;DHT22;11742;53.532;-1.478;2023-07-31T15:55:36;22.30;92.10
23147;DHT22;11742;53.532;-1.478;2023-07-31T15:58:20;22.30;92.20
23147;DHT22;11742;53.532;-1.478;2023-07-31T16:01:05;22.20;92.10
23147;DHT22;11742;53.532;-1.478;2023-07-31T16:03:49;22.20;92.10
23147;DHT22;11742;53.532;-1.478;2023-07-31T16:06:33;22.10;92.10
23147;DHT22;11742;53.532;-1.478;2023-07-31T16:09:17;22.10;92.10
23147;DHT22;11742;53.532;-1.478;2023-07-31T16:12:02;22.10;92.10
23147;DHT22;11742;53.532;-1.478;2023-07-31T16:14:47;22.10;92.10
23147;DHT22;11742;53.532;-1.478;2023-07-31T16:17:31;22.00;92.10
23147;DHT22;11742;53.532;-1.478;2023-07-31T16:20:15;22.10;92.10
23147;DHT22;11742;53.532;-1.478;2023-07-31T16:22:59;22.00;92.10
23147;DHT22;11742;53.532;-1.478;2023-07-31T16:25:44;22.00;92.10
23147;DHT22;11742;53.532;-1.478;2023-07-31T16:28:28;22.00;92.10
23147;DHT22;11742;53.532;-1.478;2023-07-31T16:31:12;22.00;92.00
23147;DHT22;11742;53.532;-1.478;2023-07-31T16:33:56;21.90;92.00
23147;DHT22;11742;53.532;-1.478;2023-07-31T16:36:42;21.90;92.00
23147;DHT22;11742;53.532;-1.478;2023-07-31T16:39:26;21.90;92.00
23147;DHT22;11742;53.532;-1.478;2023-07-31T16:42:10;21.90;92.00
23147;DHT22;11742;53.532;-1.478;2023-07-31T16:44:55;21.90;92.00
23147;DHT22;11742;53.532;-1.478;2023-07-31T16:47:39;21.90;92.00
23147;DHT22;11742;53.532;-1.478;2023-07-31T16:50:23;21.90;92.00
23147;DHT22;11742;53.532;-1.478;2023-07-31T16:53:07;21.80;91.90
23147;DHT22;11742;53.532;-1.478;2023-07-31T16:55:51;21.90;92.00
23147;DHT22;11742;53.532;-1.478;2023-07-31T16:58:35;21.90;92.00
23147;DHT22;11742;53.532;-1.478;2023-07-31T17:01:19;21.90;92.00
23147;DHT22;11742;53.532;-1.478;2023-07-31T17:04:03;21.80;91.90
23147;DHT22;11742;53.532;-1.478;2023-07-31T17:06:48;21.80;91.90
23147;DHT22;11742;53.532;-1.478;2023-07-31T17:09:32;21.80;91.90
23147;DHT22;11742;53.532;-1.478;2023-07-31T17:12:16;21.80;91.90
23147;DHT22;11742;53.532;-1.478;2023-07-31T17:15:01;21.80;91.90